createdAt,value
2019-02-25T00:00:05.999Z,3.75
2019-02-25T00:01:10.181Z,3.74
2019-02-25T00:02:14.398Z,3.72
2019-02-25T00:03:18.484Z,3.68
2019-02-25T00:04:22.724Z,3.62
2019-02-25T00:05:26.841Z,3.56
2019-02-25T00:06:31.077Z,3.51
2019-02-25T00:07:35.154Z,3.48
2019-02-25T00:08:39.419Z,3.45
2019-02-25T00:09:43.604Z,3.43
2019-02-25T00:10:47.681Z,3.40
2019-02-25T00:11:51.862Z,3.38
2019-02-25T00:12:55.994Z,3.35
2019-02-25T00:14:00.203Z,3.33
2019-02-25T00:15:04.296Z,3.32
2019-02-25T00:16:09.535Z,3.31
2019-02-25T00:17:12.642Z,3.31
2019-02-25T00:18:16.880Z,3.30
2019-02-25T00:19:21.073Z,3.27
2019-02-25T00:20:25.229Z,3.21
2019-02-25T00:21:29.323Z,3.17
2019-02-25T00:22:33.558Z,3.15
2019-02-25T00:23:37.726Z,3.13
2019-02-25T00:24:41.815Z,3.13
2019-02-25T00:25:45.944Z,3.14
2019-02-25T00:26:50.109Z,3.17
2019-02-25T00:27:54.360Z,3.20
2019-02-25T00:28:58.426Z,3.25
2019-02-25T00:30:02.655Z,3.27
2019-02-25T00:31:06.875Z,3.30
2019-02-25T00:32:11.093Z,3.32
2019-02-25T00:33:15.291Z,3.36
2019-02-25T00:34:19.488Z,3.40
2019-02-25T00:35:23.727Z,3.44
2019-02-25T00:36:27.955Z,3.46
2019-02-25T00:37:32.145Z,3.45
2019-02-25T00:38:36.204Z,3.44
2019-02-25T00:39:40.446Z,3.44
2019-02-25T00:40:44.639Z,3.44
2019-02-25T00:41:48.744Z,3.44
2019-02-25T00:42:52.891Z,3.46
2019-02-25T00:43:57.140Z,3.49
2019-02-25T00:45:01.244Z,3.51
2019-02-25T00:46:05.499Z,3.53
2019-02-25T00:47:09.608Z,3.55
2019-02-25T00:48:13.751Z,3.56
2019-02-25T00:49:17.976Z,3.55
2019-02-25T00:50:25.168Z,3.52
2019-02-25T00:51:28.305Z,3.45
2019-02-25T00:52:32.574Z,3.39
2019-02-25T00:53:36.717Z,3.34
2019-02-25T00:54:40.911Z,3.31
2019-02-25T00:55:45.015Z,3.30
2019-02-25T00:56:49.246Z,3.30
2019-02-25T00:57:53.431Z,3.30
2019-02-25T00:58:57.636Z,3.29
2019-02-25T01:00:01.753Z,3.28
2019-02-25T01:01:05.985Z,3.27
2019-02-25T01:02:10.088Z,3.28
2019-02-25T01:03:14.370Z,3.28
2019-02-25T01:04:18.425Z,3.27
2019-02-25T01:05:22.666Z,3.26
2019-02-25T01:06:26.847Z,3.25
2019-02-25T01:07:30.936Z,3.23
2019-02-25T01:08:35.204Z,3.17
2019-02-25T01:09:39.276Z,3.09
2019-02-25T01:10:43.506Z,3.03
2019-02-25T01:11:47.617Z,3.01
2019-02-25T01:12:51.752Z,3.01
2019-02-25T01:13:56.027Z,3.05
2019-02-25T01:15:00.258Z,3.07
2019-02-25T01:16:04.423Z,3.10
2019-02-25T01:17:08.520Z,3.13
2019-02-25T01:18:12.831Z,3.16
2019-02-25T01:19:17.001Z,3.18
2019-02-25T01:20:21.154Z,3.19
2019-02-25T01:21:25.339Z,3.20
2019-02-25T01:22:29.497Z,3.21
2019-02-25T01:23:33.580Z,3.20
2019-02-25T01:24:37.799Z,3.20
2019-02-25T01:25:41.907Z,3.20
2019-02-25T01:26:46.005Z,3.21
2019-02-25T01:27:50.265Z,3.21
2019-02-25T01:28:54.404Z,3.20
2019-02-25T01:29:58.504Z,3.18
2019-02-25T01:31:02.618Z,3.15
2019-02-25T01:32:06.923Z,3.12
2019-02-25T01:33:11.060Z,3.08
2019-02-25T01:34:15.191Z,3.03
2019-02-25T01:35:19.422Z,3.00
2019-02-25T01:36:23.604Z,2.98
2019-02-25T01:37:27.771Z,2.95
2019-02-25T01:38:31.970Z,2.91
2019-02-25T01:39:36.067Z,2.86
2019-02-25T01:40:40.287Z,2.83
2019-02-25T01:41:44.362Z,2.81
2019-02-25T01:42:48.500Z,2.78
2019-02-25T01:43:52.673Z,2.77
2019-02-25T01:44:56.810Z,2.77
2019-02-25T01:46:01.044Z,2.77
2019-02-25T01:47:05.175Z,2.79
2019-02-25T01:48:09.399Z,2.82
2019-02-25T01:49:13.497Z,2.86
2019-02-25T01:50:17.615Z,2.91
2019-02-25T01:51:22.287Z,2.94
2019-02-25T01:52:26.041Z,2.97
2019-02-25T01:53:30.239Z,3.00
2019-02-25T01:54:34.449Z,3.03
2019-02-25T01:55:38.545Z,3.05
2019-02-25T01:56:42.782Z,3.07
2019-02-25T01:57:46.988Z,3.08
2019-02-25T01:58:51.117Z,3.07
2019-02-25T01:59:55.297Z,3.04
2019-02-25T02:00:59.482Z,3.01
2019-02-25T02:02:03.561Z,2.97
2019-02-25T02:03:07.796Z,2.94
2019-02-25T02:04:11.995Z,2.93
2019-02-25T02:05:16.198Z,2.95
2019-02-25T02:06:20.282Z,2.96
2019-02-25T02:07:24.548Z,2.95
2019-02-25T02:08:28.628Z,2.89
2019-02-25T02:09:32.864Z,2.83
2019-02-25T02:10:36.922Z,2.78
2019-02-25T02:11:41.146Z,2.72
2019-02-25T02:12:45.329Z,2.67
2019-02-25T02:13:49.406Z,2.63
2019-02-25T02:14:53.639Z,2.60
2019-02-25T02:15:57.860Z,2.59
2019-02-25T02:17:01.908Z,2.58
2019-02-25T02:18:06.251Z,2.58
2019-02-25T02:19:13.336Z,2.58
2019-02-25T02:20:16.500Z,2.57
2019-02-25T02:21:20.504Z,2.58
2019-02-25T02:22:24.779Z,2.59
2019-02-25T02:23:28.856Z,2.60
2019-02-25T02:24:33.106Z,2.61
2019-02-25T02:25:37.179Z,2.64
2019-02-25T02:26:41.384Z,2.64
2019-02-25T02:27:45.567Z,2.65
2019-02-25T02:28:49.672Z,2.65
2019-02-25T02:29:53.859Z,2.64
2019-02-25T02:30:57.944Z,2.63
2019-02-25T02:32:02.279Z,2.63
2019-02-25T02:33:06.398Z,2.62
2019-02-25T02:34:10.502Z,2.62
2019-02-25T02:35:14.777Z,2.65
2019-02-25T02:36:18.893Z,2.68
2019-02-25T02:37:23.014Z,2.70
2019-02-25T02:38:27.272Z,2.70
2019-02-25T02:39:31.415Z,2.67
2019-02-25T02:40:35.549Z,2.63
2019-02-25T02:41:39.755Z,2.61
2019-02-25T02:42:43.857Z,2.60
2019-02-25T02:43:47.982Z,2.59
2019-02-25T02:44:52.091Z,2.58
2019-02-25T02:45:56.444Z,2.58
2019-02-25T02:47:00.479Z,2.58
2019-02-25T02:48:04.647Z,2.59
2019-02-25T02:49:08.660Z,2.60
2019-02-25T02:50:12.965Z,2.60
2019-02-25T02:51:17.177Z,2.61
2019-02-25T02:52:21.322Z,2.62
2019-02-25T02:53:25.428Z,2.63
2019-02-25T02:54:29.680Z,2.64
2019-02-25T02:55:33.884Z,2.64
2019-02-25T02:56:38.026Z,2.64
2019-02-25T02:57:42.135Z,2.66
2019-02-25T02:58:46.280Z,2.67
2019-02-25T02:59:50.519Z,2.68
2019-02-25T03:00:54.815Z,2.70
2019-02-25T03:01:58.944Z,2.73
2019-02-25T03:03:03.038Z,2.76
2019-02-25T03:04:07.288Z,2.78
2019-02-25T03:05:11.484Z,2.80
2019-02-25T03:06:15.680Z,2.81
2019-02-25T03:07:19.847Z,2.81
2019-02-25T03:08:24.040Z,2.82
2019-02-25T03:09:28.226Z,2.82
2019-02-25T03:10:32.339Z,2.81
2019-02-25T03:11:36.462Z,2.81
2019-02-25T03:12:40.672Z,2.80
2019-02-25T03:13:44.842Z,2.80
2019-02-25T03:14:49.005Z,2.81
2019-02-25T03:15:53.166Z,2.81
2019-02-25T03:16:57.243Z,2.79
2019-02-25T03:18:01.490Z,2.78
2019-02-25T03:19:05.477Z,2.77
2019-02-25T03:20:09.663Z,2.77
2019-02-25T03:21:13.852Z,2.76
2019-02-25T03:22:18.099Z,2.76
2019-02-25T03:23:22.285Z,2.76
2019-02-25T03:24:26.407Z,2.75
2019-02-25T03:25:30.468Z,2.74
2019-02-25T03:26:34.754Z,2.73
2019-02-25T03:27:38.953Z,2.74
2019-02-25T03:28:43.005Z,2.74
2019-02-25T03:29:47.135Z,2.75
2019-02-25T03:30:51.398Z,2.75
2019-02-25T03:31:55.483Z,2.75
2019-02-25T03:32:59.719Z,2.75
2019-02-25T03:34:03.923Z,2.74
2019-02-25T03:35:08.009Z,2.73
2019-02-25T03:36:12.282Z,2.72
2019-02-25T03:37:16.394Z,2.72
2019-02-25T03:38:20.611Z,2.72
2019-02-25T03:39:24.814Z,2.72
2019-02-25T03:40:29.049Z,2.72
2019-02-25T03:41:33.312Z,2.71
2019-02-25T03:42:37.331Z,2.69
2019-02-25T03:43:41.438Z,2.67
2019-02-25T03:44:45.595Z,2.67
2019-02-25T03:45:49.734Z,2.67
2019-02-25T03:46:53.963Z,2.68
2019-02-25T03:47:58.150Z,2.69
2019-02-25T03:49:02.418Z,2.69
2019-02-25T03:50:06.527Z,2.69
2019-02-25T03:51:10.658Z,2.69
2019-02-25T03:52:14.853Z,2.69
2019-02-25T03:53:19.066Z,2.70
2019-02-25T03:54:26.150Z,2.71
2019-02-25T03:55:29.410Z,2.73
2019-02-25T03:56:33.527Z,2.74
2019-02-25T03:57:37.684Z,2.75
2019-02-25T03:58:41.825Z,2.77
2019-02-25T03:59:46.046Z,2.78
2019-02-25T04:00:50.027Z,2.80
2019-02-25T04:01:54.315Z,2.81
2019-02-25T04:02:58.599Z,2.84
2019-02-25T04:04:02.740Z,2.86
2019-02-25T04:05:06.825Z,2.89
2019-02-25T04:06:11.094Z,2.91
2019-02-25T04:07:15.170Z,2.92
2019-02-25T04:08:19.399Z,2.91
2019-02-25T04:09:23.581Z,2.90
2019-02-25T04:10:27.750Z,2.89
2019-02-25T04:11:31.942Z,2.86
2019-02-25T04:12:36.105Z,2.83
2019-02-25T04:13:40.303Z,2.80
2019-02-25T04:14:44.481Z,2.78
2019-02-25T04:15:48.582Z,2.78
2019-02-25T04:16:52.826Z,2.76
2019-02-25T04:17:57.003Z,2.73
2019-02-25T04:19:01.101Z,2.70
2019-02-25T04:20:05.315Z,2.68
2019-02-25T04:21:09.464Z,2.68
2019-02-25T04:22:13.683Z,2.69
2019-02-25T04:23:17.855Z,2.69
2019-02-25T04:24:22.034Z,2.70
2019-02-25T04:25:26.162Z,2.71
2019-02-25T04:26:30.443Z,2.72
2019-02-25T04:27:34.609Z,2.73
2019-02-25T04:28:38.795Z,2.74
2019-02-25T04:29:42.907Z,2.75
2019-02-25T04:30:46.959Z,2.75
2019-02-25T04:31:51.167Z,2.76
2019-02-25T04:32:55.402Z,2.76
2019-02-25T04:33:59.613Z,2.73
2019-02-25T04:35:03.705Z,2.69
2019-02-25T04:36:07.939Z,2.66
2019-02-25T04:37:12.112Z,2.64
2019-02-25T04:38:16.302Z,2.63
2019-02-25T04:39:20.511Z,2.65
2019-02-25T04:40:24.693Z,2.68
2019-02-25T04:41:28.788Z,2.71
2019-02-25T04:42:33.033Z,2.73
2019-02-25T04:43:37.087Z,2.74
2019-02-25T04:44:41.237Z,2.74
2019-02-25T04:45:45.371Z,2.73
2019-02-25T04:46:49.659Z,2.71
2019-02-25T04:47:53.830Z,2.68
2019-02-25T04:48:57.913Z,2.64
2019-02-25T04:50:02.035Z,2.61
2019-02-25T04:51:06.153Z,2.60
2019-02-25T04:52:10.311Z,2.59
2019-02-25T04:53:14.547Z,2.58
2019-02-25T04:54:18.540Z,2.58
2019-02-25T04:55:22.835Z,2.59
2019-02-25T04:56:26.857Z,2.61
2019-02-25T04:57:31.071Z,2.62
2019-02-25T04:58:35.290Z,2.64
2019-02-25T04:59:39.346Z,2.64
2019-02-25T05:00:43.495Z,2.65
2019-02-25T05:01:47.730Z,2.66
2019-02-25T05:02:51.927Z,2.68
2019-02-25T05:03:56.129Z,2.71
2019-02-25T05:05:00.364Z,2.74
2019-02-25T05:06:04.472Z,2.77
2019-02-25T05:07:08.574Z,2.79
2019-02-25T05:08:12.814Z,2.82
2019-02-25T05:09:16.802Z,2.85
2019-02-25T05:10:21.119Z,2.87
2019-02-25T05:11:25.795Z,2.90
2019-02-25T05:12:29.497Z,2.92
2019-02-25T05:13:33.631Z,2.94
2019-02-25T05:14:37.727Z,2.95
2019-02-25T05:15:41.969Z,2.92
2019-02-25T05:16:46.068Z,2.89
2019-02-25T05:17:50.241Z,2.85
2019-02-25T05:18:54.466Z,2.82
2019-02-25T05:19:58.678Z,2.80
2019-02-25T05:21:02.766Z,2.78
2019-02-25T05:22:07.003Z,2.76
2019-02-25T05:23:11.212Z,2.74
2019-02-25T05:24:15.270Z,2.73
2019-02-25T05:25:19.484Z,2.72
2019-02-25T05:26:23.552Z,2.73
2019-02-25T05:27:27.823Z,2.75
2019-02-25T05:28:31.897Z,2.77
2019-02-25T05:29:36.018Z,2.78
2019-02-25T05:30:40.160Z,2.79
2019-02-25T05:31:47.439Z,2.79
2019-02-25T05:32:50.731Z,2.79
2019-02-25T05:33:54.922Z,2.78
2019-02-25T05:34:58.899Z,2.77
2019-02-25T05:36:03.165Z,2.77
2019-02-25T05:37:07.230Z,2.77
2019-02-25T05:38:11.454Z,2.78
2019-02-25T05:39:15.596Z,2.79
2019-02-25T05:40:19.783Z,2.82
2019-02-25T05:41:23.855Z,2.85
2019-02-25T05:42:28.048Z,2.88
2019-02-25T05:43:32.179Z,2.92
2019-02-25T05:44:36.294Z,2.95
2019-02-25T05:45:40.459Z,2.98
2019-02-25T05:46:44.607Z,3.01
2019-02-25T05:47:48.801Z,3.03
2019-02-25T05:48:52.864Z,3.06
2019-02-25T05:49:56.997Z,3.08
2019-02-25T05:51:01.277Z,3.08
2019-02-25T05:52:05.392Z,3.06
2019-02-25T05:53:09.622Z,3.03
2019-02-25T05:54:13.736Z,2.99
2019-02-25T05:55:17.844Z,2.98
2019-02-25T05:56:21.926Z,2.96
2019-02-25T05:57:26.098Z,2.96
2019-02-25T05:58:30.291Z,2.94
2019-02-25T05:59:34.491Z,2.91
2019-02-25T06:00:38.618Z,2.86
2019-02-25T06:01:42.832Z,2.81
2019-02-25T06:02:47.006Z,2.77
2019-02-25T06:03:51.087Z,2.73
2019-02-25T06:04:55.331Z,2.69
2019-02-25T06:05:59.520Z,2.67
2019-02-25T06:07:03.580Z,2.66
2019-02-25T06:08:07.740Z,2.66
2019-02-25T06:09:11.998Z,2.68
2019-02-25T06:10:16.082Z,2.70
2019-02-25T06:11:20.323Z,2.73
2019-02-25T06:12:24.500Z,2.76
2019-02-25T06:13:28.568Z,2.79
2019-02-25T06:14:32.813Z,2.81
2019-02-25T06:15:36.979Z,2.83
2019-02-25T06:16:41.153Z,2.86
2019-02-25T06:17:45.324Z,2.90
2019-02-25T06:18:49.403Z,2.94
2019-02-25T06:19:53.639Z,2.98
2019-02-25T06:20:57.729Z,3.00
2019-02-25T06:22:01.861Z,2.97
2019-02-25T06:23:06.013Z,2.89
2019-02-25T06:24:10.247Z,2.81
2019-02-25T06:25:14.425Z,2.77
2019-02-25T06:26:18.632Z,2.77
2019-02-25T06:27:30.527Z,2.80
2019-02-25T06:28:26.942Z,2.83
2019-02-25T06:29:31.140Z,2.87
2019-02-25T06:30:35.270Z,2.91
2019-02-25T06:31:39.517Z,2.94
2019-02-25T06:32:43.691Z,2.97
2019-02-25T06:33:47.904Z,2.99
2019-02-25T06:34:52.095Z,3.02
2019-02-25T06:35:56.337Z,3.05
2019-02-25T06:37:00.401Z,3.07
2019-02-25T06:38:04.654Z,3.09
2019-02-25T06:39:08.880Z,3.10
2019-02-25T06:40:15.643Z,3.08
2019-02-25T06:41:17.240Z,3.08
2019-02-25T06:42:21.419Z,3.08
2019-02-25T06:43:25.484Z,3.09
2019-02-25T06:44:29.629Z,3.10
2019-02-25T06:45:33.899Z,3.11
2019-02-25T06:46:37.955Z,3.13
2019-02-25T06:47:42.166Z,3.15
2019-02-25T06:48:46.244Z,3.17
2019-02-25T06:49:50.358Z,3.18
2019-02-25T06:50:57.604Z,3.20
2019-02-25T06:52:00.837Z,3.22
2019-02-25T06:53:04.912Z,3.24
2019-02-25T06:54:09.139Z,3.26
2019-02-25T06:55:13.326Z,3.28
2019-02-25T06:56:17.554Z,3.28
2019-02-25T06:57:21.747Z,3.27
2019-02-25T06:58:25.919Z,3.28
2019-02-25T06:59:29.988Z,3.28
2019-02-25T07:00:34.107Z,3.26
2019-02-25T07:01:38.260Z,3.21
2019-02-25T07:02:42.501Z,3.18
2019-02-25T07:03:46.661Z,3.16
2019-02-25T07:04:50.769Z,3.16
2019-02-25T07:05:54.957Z,3.18
2019-02-25T07:06:59.147Z,3.21
2019-02-25T07:08:03.308Z,3.25
2019-02-25T07:09:07.385Z,3.30
2019-02-25T07:10:11.577Z,3.35
2019-02-25T07:11:15.689Z,3.39
2019-02-25T07:12:19.907Z,3.43
2019-02-25T07:13:24.087Z,3.48
2019-02-25T07:14:28.294Z,3.51
2019-02-25T07:15:32.373Z,3.54
2019-02-25T07:16:36.537Z,3.56
2019-02-25T07:17:40.823Z,3.59
2019-02-25T07:18:45.016Z,3.59
2019-02-25T07:19:49.132Z,3.57
2019-02-25T07:20:53.354Z,3.58
2019-02-25T07:21:57.539Z,3.62
2019-02-25T07:23:03.403Z,3.65
2019-02-25T07:24:05.717Z,3.67
2019-02-25T07:25:09.958Z,3.65
2019-02-25T07:26:14.164Z,3.62
2019-02-25T07:27:18.255Z,3.57
2019-02-25T07:28:22.485Z,3.52
2019-02-25T07:29:26.592Z,3.49
2019-02-25T07:30:30.746Z,3.48
2019-02-25T07:31:34.876Z,3.48
2019-02-25T07:32:39.131Z,3.46
2019-02-25T07:33:43.235Z,3.44
2019-02-25T07:34:47.404Z,3.44
2019-02-25T07:35:51.610Z,3.45
2019-02-25T07:36:55.818Z,3.46
2019-02-25T07:37:59.994Z,3.48
2019-02-25T07:39:04.170Z,3.52
2019-02-25T07:40:08.316Z,3.59
2019-02-25T07:41:12.514Z,3.65
2019-02-25T07:42:16.746Z,3.71
2019-02-25T07:43:20.946Z,3.77
2019-02-25T07:44:25.221Z,3.82
2019-02-25T07:45:29.264Z,3.86
2019-02-25T07:46:33.430Z,3.90
2019-02-25T07:47:37.681Z,3.94
2019-02-25T07:48:42.459Z,3.96
2019-02-25T07:49:45.991Z,3.96
2019-02-25T07:50:50.241Z,3.93
2019-02-25T07:51:54.441Z,3.91
2019-02-25T07:52:58.646Z,3.90
2019-02-25T07:54:02.733Z,3.91
2019-02-25T07:55:06.976Z,3.93
2019-02-25T07:56:11.160Z,3.97
2019-02-25T07:57:15.282Z,3.99
2019-02-25T07:58:19.533Z,4.00
2019-02-25T07:59:23.697Z,4.02
2019-02-25T08:00:27.923Z,4.04
2019-02-25T08:01:32.121Z,4.06
2019-02-25T08:02:36.389Z,4.07
2019-02-25T08:03:40.564Z,4.07
2019-02-25T08:04:44.680Z,4.07
2019-02-25T08:05:48.836Z,4.07
2019-02-25T08:06:52.976Z,4.07
2019-02-25T08:07:57.129Z,4.10
2019-02-25T08:09:01.329Z,4.13
2019-02-25T08:10:05.593Z,4.18
2019-02-25T08:11:09.720Z,4.23
2019-02-25T08:12:13.872Z,4.28
2019-02-25T08:13:18.132Z,4.33
2019-02-25T08:14:25.269Z,4.38
2019-02-25T08:15:28.371Z,4.43
2019-02-25T08:16:32.568Z,4.46
2019-02-25T08:17:36.762Z,4.47
2019-02-25T08:18:41.038Z,4.49
2019-02-25T08:19:45.211Z,4.54
2019-02-25T08:20:49.389Z,4.59
2019-02-25T08:21:53.605Z,4.64
2019-02-25T08:22:57.686Z,4.66
2019-02-25T08:24:01.836Z,4.69
2019-02-25T08:25:05.997Z,4.71
2019-02-25T08:26:10.155Z,4.72
2019-02-25T08:27:14.323Z,4.74
2019-02-25T08:28:18.586Z,4.75
2019-02-25T08:29:22.665Z,4.78
2019-02-25T08:30:26.923Z,4.80
2019-02-25T08:31:31.132Z,4.84
2019-02-25T08:32:35.357Z,4.89
2019-02-25T08:33:39.593Z,4.93
2019-02-25T08:34:43.772Z,4.98
2019-02-25T08:35:47.982Z,5.01
2019-02-25T08:36:52.164Z,5.05
2019-02-25T08:37:56.299Z,5.07
2019-02-25T08:39:00.464Z,5.10
2019-02-25T08:40:04.634Z,5.14
2019-02-25T08:41:08.909Z,5.18
2019-02-25T08:42:13.070Z,5.22
2019-02-25T08:43:17.292Z,5.26
2019-02-25T08:44:21.511Z,5.29
2019-02-25T08:45:25.693Z,5.33
2019-02-25T08:46:29.909Z,5.37
2019-02-25T08:47:34.042Z,5.40
2019-02-25T08:48:38.350Z,5.44
2019-02-25T08:49:42.527Z,5.48
2019-02-25T08:50:46.605Z,5.51
2019-02-25T08:51:50.900Z,5.53
2019-02-25T08:52:55.120Z,5.56
2019-02-25T08:53:59.334Z,5.59
2019-02-25T08:55:03.552Z,5.62
2019-02-25T08:56:07.758Z,5.65
2019-02-25T08:57:11.870Z,5.66
2019-02-25T08:58:16.034Z,5.67
2019-02-25T08:59:20.275Z,5.68
2019-02-25T09:00:24.464Z,5.71
2019-02-25T09:01:28.689Z,5.74
2019-02-25T09:02:32.804Z,5.76
2019-02-25T09:03:37.068Z,5.78
2019-02-25T09:04:41.218Z,5.81
2019-02-25T09:05:45.495Z,5.84
2019-02-25T09:06:49.711Z,5.85
2019-02-25T09:07:53.947Z,5.87
2019-02-25T09:08:58.149Z,5.90
2019-02-25T09:10:02.398Z,5.92
2019-02-25T09:11:13.878Z,5.93
2019-02-25T09:12:10.793Z,5.95
2019-02-25T09:13:15.010Z,5.98
2019-02-25T09:14:19.199Z,6.01
2019-02-25T09:15:23.433Z,6.04
2019-02-25T09:16:27.604Z,6.07
2019-02-25T09:17:31.796Z,6.10
2019-02-25T09:18:35.995Z,6.13
2019-02-25T09:19:40.228Z,6.16
2019-02-25T09:20:44.446Z,6.19
2019-02-25T09:21:48.563Z,6.21
2019-02-25T09:22:52.818Z,6.25
2019-02-25T09:23:57.017Z,6.27
2019-02-25T09:25:01.137Z,6.29
2019-02-25T09:26:05.400Z,6.32
2019-02-25T09:27:09.615Z,6.35
2019-02-25T09:28:13.742Z,6.38
2019-02-25T09:29:17.966Z,6.42
2019-02-25T09:30:22.219Z,6.46
2019-02-25T09:31:26.440Z,6.50
2019-02-25T09:32:30.647Z,6.54
2019-02-25T09:33:34.762Z,6.57
2019-02-25T09:34:38.960Z,6.62
2019-02-25T09:35:43.211Z,6.65
2019-02-25T09:36:47.463Z,6.68
2019-02-25T09:37:51.584Z,6.73
2019-02-25T09:38:56.750Z,6.76
2019-02-25T09:40:00.314Z,6.80
2019-02-25T09:41:04.352Z,6.84
2019-02-25T09:42:08.474Z,6.87
2019-02-25T09:43:12.758Z,6.90
2019-02-25T09:44:17.045Z,6.93
2019-02-25T09:45:21.139Z,6.97
2019-02-25T09:46:25.431Z,7.00
2019-02-25T09:47:29.660Z,7.02
2019-02-25T09:48:33.891Z,7.05
2019-02-25T09:49:37.979Z,7.09
2019-02-25T09:50:42.251Z,7.11
2019-02-25T09:51:46.442Z,7.14
2019-02-25T09:52:50.582Z,7.17
2019-02-25T09:53:54.887Z,7.21
2019-02-25T09:54:59.132Z,7.25
2019-02-25T09:56:03.363Z,7.28
2019-02-25T09:57:07.491Z,7.31
2019-02-25T09:58:11.665Z,7.35
2019-02-25T09:59:15.954Z,7.40
2019-02-25T10:00:20.204Z,7.44
2019-02-25T10:01:24.455Z,7.48
2019-02-25T10:02:28.590Z,7.52
2019-02-25T10:03:32.903Z,7.55
2019-02-25T10:04:37.121Z,7.59
2019-02-25T10:05:41.401Z,7.62
2019-02-25T10:06:45.604Z,7.65
2019-02-25T10:07:49.884Z,7.69
2019-02-25T10:08:53.998Z,7.73
2019-02-25T10:09:58.300Z,7.77
2019-02-25T10:11:02.447Z,7.80
2019-02-25T10:12:06.725Z,7.84
2019-02-25T10:13:10.984Z,7.87
2019-02-25T10:14:15.231Z,7.92
2019-02-25T10:15:19.467Z,7.96
2019-02-25T10:16:23.727Z,8.00
2019-02-25T10:17:27.973Z,8.04
2019-02-25T10:18:32.095Z,8.07
2019-02-25T10:19:36.385Z,8.10
2019-02-25T10:20:40.582Z,8.12
2019-02-25T10:21:44.882Z,8.15
2019-02-25T10:22:49.132Z,8.18
2019-02-25T10:23:53.276Z,8.20
2019-02-25T10:24:57.684Z,8.24
2019-02-25T10:26:01.922Z,8.28
2019-02-25T10:27:06.184Z,8.30
2019-02-25T10:28:10.401Z,8.33
2019-02-25T10:29:14.716Z,8.37
2019-02-25T10:30:18.857Z,8.41
2019-02-25T10:31:23.122Z,8.43
2019-02-25T10:32:28.064Z,8.47
2019-02-25T10:33:31.593Z,8.51
2019-02-25T10:34:35.828Z,8.54
2019-02-25T10:35:40.019Z,8.58
2019-02-25T10:36:46.006Z,8.64
2019-02-25T10:37:48.508Z,8.67
2019-02-25T10:38:52.792Z,8.71
2019-02-25T10:39:57.066Z,8.74
2019-02-25T10:41:01.253Z,8.77
2019-02-25T10:42:05.449Z,8.80
2019-02-25T10:43:09.779Z,8.82
2019-02-25T10:44:14.013Z,8.86
2019-02-25T10:45:18.252Z,8.90
2019-02-25T10:46:22.585Z,8.95
2019-02-25T10:47:26.805Z,9.00
2019-02-25T10:48:31.069Z,9.05
2019-02-25T10:49:35.285Z,9.09
2019-02-25T10:50:40.935Z,9.11
2019-02-25T10:51:45.450Z,9.13
2019-02-25T10:52:49.472Z,9.15
2019-02-25T10:53:53.616Z,9.18
2019-02-25T10:54:58.212Z,9.20
2019-02-25T10:56:00.844Z,9.24
2019-02-25T10:57:05.086Z,9.29
2019-02-25T10:58:09.331Z,9.33
2019-02-25T10:59:13.599Z,9.36
2019-02-25T11:00:17.856Z,9.40
2019-02-25T11:01:24.393Z,9.46
2019-02-25T11:02:26.394Z,9.52
2019-02-25T11:03:30.633Z,9.57
2019-02-25T11:04:34.912Z,9.60
2019-02-25T11:05:39.159Z,9.64
2019-02-25T11:06:43.484Z,9.69
2019-02-25T11:07:47.717Z,9.75
2019-02-25T11:08:51.968Z,9.80
2019-02-25T11:09:56.150Z,9.87
2019-02-25T11:11:00.478Z,9.93
2019-02-25T11:12:04.793Z,9.99
2019-02-25T11:13:09.140Z,10.03
2019-02-25T11:14:13.369Z,10.06
2019-02-25T11:15:17.650Z,10.10
2019-02-25T11:16:21.915Z,10.16
2019-02-25T11:17:26.306Z,10.22
2019-02-25T11:18:30.523Z,10.29
2019-02-25T11:19:34.793Z,10.36
2019-02-25T11:20:39.056Z,10.42
2019-02-25T11:21:44.244Z,10.47
2019-02-25T11:22:48.513Z,10.52
2019-02-25T11:23:53.381Z,10.56
2019-02-25T11:24:59.128Z,10.63
2019-02-25T11:26:02.481Z,10.69
2019-02-25T11:27:07.312Z,10.74
2019-02-25T11:28:22.632Z,10.81
2019-02-25T11:29:16.326Z,10.90
2019-02-25T11:30:21.569Z,10.98
2019-02-25T11:31:26.325Z,11.08
2019-02-25T11:32:31.194Z,11.17
2019-02-25T11:33:34.560Z,11.25
2019-02-25T11:34:39.902Z,11.33
2019-02-25T11:35:43.434Z,11.40
2019-02-25T11:36:48.157Z,11.48
2019-02-25T11:37:52.569Z,11.58
2019-02-25T11:38:57.836Z,11.65
2019-02-25T11:40:01.695Z,11.71
2019-02-25T11:41:06.588Z,11.79
2019-02-25T11:42:10.819Z,11.89
2019-02-25T11:43:15.798Z,11.98
2019-02-25T11:44:19.031Z,12.05
2019-02-25T11:45:21.518Z,12.15
2019-02-25T11:46:25.897Z,12.20
2019-02-25T11:47:30.232Z,12.28
2019-02-25T11:48:34.526Z,12.38
2019-02-25T11:49:38.810Z,12.50
2019-02-25T11:50:44.782Z,12.58
2019-02-25T11:51:47.269Z,12.68
2019-02-25T11:52:51.656Z,12.79
2019-02-25T11:53:55.923Z,12.86
2019-02-25T11:55:00.256Z,12.88
2019-02-25T11:56:04.515Z,12.87
2019-02-25T11:57:08.875Z,12.90
2019-02-25T11:58:13.171Z,12.93
2019-02-25T11:59:17.479Z,12.96
2019-02-25T12:00:21.771Z,12.96
2019-02-25T12:01:26.075Z,12.99
2019-02-25T12:02:30.318Z,13.07
2019-02-25T12:03:34.644Z,13.09
2019-02-25T12:04:38.940Z,13.10
2019-02-25T12:05:43.253Z,13.17
2019-02-25T12:06:47.569Z,13.20
2019-02-25T12:07:51.891Z,13.24
2019-02-25T12:08:56.184Z,13.23
2019-02-25T12:10:00.487Z,13.29
2019-02-25T12:11:04.791Z,13.34
2019-02-25T12:12:09.000Z,13.41
2019-02-25T12:13:13.367Z,13.48
2019-02-25T12:14:17.666Z,13.54
2019-02-25T12:15:21.975Z,13.56
2019-02-25T12:16:26.192Z,13.57
2019-02-25T12:17:30.591Z,13.58
2019-02-25T12:18:34.925Z,13.68
2019-02-25T12:19:39.215Z,13.82
2019-02-25T12:20:43.547Z,13.87
2019-02-25T12:21:47.901Z,13.86
2019-02-25T12:22:52.249Z,13.80
2019-02-25T12:23:56.535Z,13.78
2019-02-25T12:25:00.876Z,13.85
2019-02-25T12:26:05.183Z,13.87
2019-02-25T12:27:09.484Z,13.91
2019-02-25T12:28:13.820Z,13.93
2019-02-25T12:29:18.094Z,13.98
2019-02-25T12:30:22.451Z,14.02
2019-02-25T12:31:26.749Z,14.08
2019-02-25T12:32:31.031Z,14.22
2019-02-25T12:33:35.389Z,14.33
2019-02-25T12:34:39.705Z,14.31
2019-02-25T12:35:44.026Z,14.26
2019-02-25T12:36:48.323Z,14.24
2019-02-25T12:37:52.670Z,14.30
2019-02-25T12:38:56.965Z,14.41
2019-02-25T12:40:01.296Z,14.55
2019-02-25T12:41:05.628Z,14.69
2019-02-25T12:42:09.965Z,14.82
2019-02-25T12:43:14.301Z,14.83
2019-02-25T12:44:18.618Z,14.84
2019-02-25T12:45:22.946Z,14.86
2019-02-25T12:46:27.272Z,14.92
2019-02-25T12:47:31.752Z,14.94
2019-02-25T12:48:36.035Z,15.00
2019-02-25T12:49:40.333Z,15.03
2019-02-25T12:50:44.662Z,15.08
2019-02-25T12:51:49.004Z,15.20
2019-02-25T12:52:53.330Z,15.25
2019-02-25T12:53:57.686Z,15.29
2019-02-25T12:55:02.052Z,15.20
2019-02-25T12:56:06.359Z,15.10
2019-02-25T12:57:10.683Z,15.07
2019-02-25T12:58:15.270Z,15.06
2019-02-25T12:59:19.497Z,15.08
2019-02-25T13:00:23.789Z,15.12
2019-02-25T13:01:28.110Z,15.20
2019-02-25T13:02:32.484Z,15.30
2019-02-25T13:03:36.807Z,15.39
2019-02-25T13:04:41.078Z,15.47
2019-02-25T13:05:45.393Z,15.52
2019-02-25T13:06:49.735Z,15.53
2019-02-25T13:07:54.000Z,15.54
2019-02-25T13:08:58.402Z,15.60
2019-02-25T13:10:02.762Z,15.68
2019-02-25T13:11:07.119Z,15.77
2019-02-25T13:12:11.477Z,15.70
2019-02-25T13:13:15.834Z,15.55
2019-02-25T13:14:20.164Z,15.47
2019-02-25T13:15:24.504Z,15.50
2019-02-25T13:16:28.861Z,15.56
2019-02-25T13:17:33.104Z,15.66
2019-02-25T13:18:37.506Z,15.72
2019-02-25T13:19:41.903Z,15.69
2019-02-25T13:20:46.244Z,15.64
2019-02-25T13:21:50.653Z,15.56
2019-02-25T13:22:54.966Z,15.52
2019-02-25T13:24:00.057Z,15.47
2019-02-25T13:25:05.307Z,15.38
2019-02-25T13:26:08.020Z,15.25
2019-02-25T13:27:13.827Z,15.24
2019-02-25T13:28:16.743Z,15.25
2019-02-25T13:29:21.219Z,15.34
2019-02-25T13:30:25.481Z,15.44
2019-02-25T13:31:29.859Z,15.54
2019-02-25T13:32:34.068Z,15.67
2019-02-25T13:33:38.472Z,15.78
2019-02-25T13:34:42.811Z,15.74
2019-02-25T13:35:47.126Z,15.66
2019-02-25T13:36:51.453Z,15.55
2019-02-25T13:37:55.839Z,15.49
2019-02-25T13:39:00.198Z,15.53
2019-02-25T13:40:04.545Z,15.63
2019-02-25T13:41:08.887Z,15.65
2019-02-25T13:42:13.221Z,15.70
2019-02-25T13:43:17.587Z,15.71
2019-02-25T13:44:21.951Z,15.66
2019-02-25T13:45:26.268Z,15.61
2019-02-25T13:46:30.607Z,15.55
2019-02-25T13:47:34.934Z,15.50
2019-02-25T13:48:39.272Z,15.49
2019-02-25T13:49:43.604Z,15.44
2019-02-25T13:50:47.946Z,15.38
2019-02-25T13:51:52.289Z,15.33
2019-02-25T13:52:56.647Z,15.32
2019-02-25T13:54:00.959Z,15.30
2019-02-25T13:55:05.188Z,15.30
2019-02-25T13:56:09.602Z,15.24
2019-02-25T13:57:14.012Z,15.12
2019-02-25T13:58:18.302Z,15.00
2019-02-25T13:59:22.616Z,14.91
2019-02-25T14:00:26.944Z,14.93
2019-02-25T14:01:31.273Z,14.99
2019-02-25T14:02:35.709Z,15.05
2019-02-25T14:03:39.982Z,15.02
2019-02-25T14:04:44.581Z,15.01
2019-02-25T14:05:48.717Z,14.96
2019-02-25T14:06:53.020Z,14.87
2019-02-25T14:07:57.299Z,14.82